Time;durP1;ratioP1;P1;durP2;ratioP2;P2;SDS_P1;SDS_P2;PMS_P1;PMS_P2;Temp;Humidity;BMP_temperature;BMP_pressure;BME280_temperature;BME280_humidity;BME280_pressure;Samples;Min_cycle;Max_cycle;Signal;HPM_P1;HPM_P2
2023/04/11 00:01:21;;;;;;;10.32;7.05;;;;;;;9.17;67.29;100296.22;5006980;28;20048;-74
2023/04/11 00:03:46;;;;;;;10.68;6.93;;;;;;;9.13;67.85;100290.06;4991729;28;20046;-74
2023/04/11 00:06:11;;;;;;;9.50;6.45;;;;;;;9.11;67.47;100275.16;4991906;28;20045;-74
2023/04/11 00:08:37;;;;;;;9.30;6.53;;;;;;;9.08;67.61;100273.41;4991548;28;20042;-74
2023/04/11 00:11:02;;;;;;;10.52;6.72;;;;;;;9.09;67.60;100266.38;4991579;28;20042;-74
2023/04/11 00:13:27;;;;;;;10.95;6.53;;;;;;;9.06;68.21;100258.50;4991798;28;20041;-74
2023/04/11 00:15:54;;;;;;;11.05;6.78;;;;;;;9.06;67.66;100251.47;4991657;28;20041;-74
2023/04/11 00:18:21;;;;;;;9.73;6.57;;;;;;;9.07;68.38;100242.72;4991592;28;20046;-74
2023/04/11 00:20:46;;;;;;;10.20;7.20;;;;;;;9.06;68.36;100240.94;4991433;28;20030;-74
2023/04/11 00:23:11;;;;;;;9.30;6.18;;;;;;;9.03;67.75;100242.72;4991661;28;20500;-74
2023/04/11 00:25:37;;;;;;;9.80;6.25;;;;;;;8.99;68.04;100232.22;4982786;28;20693;-74
2023/04/11 00:28:02;;;;;;;9.63;6.97;;;;;;;8.98;68.15;100229.59;4991542;28;20030;-74
2023/04/11 00:30:27;;;;;;;9.98;6.63;;;;;;;8.94;68.05;100218.19;4982164;28;20039;-74
2023/04/11 00:32:53;;;;;;;9.93;7.07;;;;;;;8.92;67.99;100205.94;4991779;28;20038;-74
2023/04/11 00:35:18;;;;;;;9.77;6.78;;;;;;;8.89;67.68;100200.69;4982487;28;20026;-74
2023/04/11 00:37:45;;;;;;;10.52;6.85;;;;;;;8.90;67.82;100197.16;4991963;28;20026;-74
2023/04/11 00:40:13;;;;;;;9.20;6.05;;;;;;;8.92;67.92;100191.00;5006432;28;20093;-74
2023/04/11 00:42:38;;;;;;;10.18;7.55;;;;;;;8.92;67.77;100195.41;4978912;28;20047;-74
2023/04/11 00:45:04;;;;;;;11.30;7.13;;;;;;;8.89;67.97;100187.53;4991335;28;20096;-74
2023/04/11 00:47:31;;;;;;;10.80;6.78;;;;;;;8.88;68.62;100188.38;4982306;28;20092;-74
2023/04/11 00:49:57;;;;;;;11.13;7.30;;;;;;;8.92;68.14;100192.78;4990775;28;20042;-74
2023/04/11 00:52:22;;;;;;;9.43;6.60;;;;;;;8.98;67.79;100182.19;4990526;28;20030;-74
2023/04/11 00:54:48;;;;;;;11.73;6.68;;;;;;;9.02;68.38;100183.94;4981731;28;20038;-74
2023/04/11 00:57:14;;;;;;;9.48;6.65;;;;;;;9.09;67.65;100183.03;5006412;28;20027;-74
2023/04/11 00:59:41;;;;;;;10.70;6.38;;;;;;;9.17;67.10;100183.88;5005943;28;20084;-74
2023/04/11 01:02:07;;;;;;;9.45;5.90;;;;;;;9.25;67.06;100182.91;4989959;28;20037;-74
2023/04/11 01:04:32;;;;;;;10.27;6.50;;;;;;;9.19;67.20;100173.31;4991271;28;20038;-74
2023/04/11 01:07:04;;;;;;;11.18;6.90;;;;;;;9.20;67.22;100175.94;5006141;28;20038;-74
2023/04/11 01:09:32;;;;;;;9.15;6.38;;;;;;;9.28;66.81;100183.78;4983259;28;20034;-74
2023/04/11 01:11:58;;;;;;;10.55;6.97;;;;;;;9.36;66.36;100183.75;4989399;28;20061;-74
2023/04/11 01:14:25;;;;;;;9.32;6.28;;;;;;;9.37;66.28;100185.47;4992413;28;20447;-72
2023/04/11 01:16:51;;;;;;;8.60;6.00;;;;;;;9.40;66.04;100190.72;5006108;28;20042;-73
2023/04/11 01:19:21;;;;;;;9.23;6.13;;;;;;;9.44;65.99;100187.19;4992314;28;20034;-72
2023/04/11 01:21:48;;;;;;;9.88;6.68;;;;;;;9.50;65.51;100189.78;4966251;28;20088;-73
2023/04/11 01:24:14;;;;;;;9.85;6.68;;;;;;;9.53;66.08;100179.22;4994628;28;20117;-73
2023/04/11 01:26:39;;;;;;;9.30;6.60;;;;;;;9.53;65.76;100173.94;5009577;28;20137;-73
2023/04/11 01:29:05;;;;;;;9.80;6.18;;;;;;;9.54;65.81;100170.44;4992822;28;20034;-73
2023/04/11 01:31:34;;;;;;;8.40;6.07;;;;;;;9.56;65.82;100171.31;4994348;28;20042;-72
2023/04/11 01:34:00;;;;;;;9.75;5.97;;;;;;;9.49;65.74;100164.34;4993118;28;20408;-72
2023/04/11 01:36:27;;;;;;;9.52;6.32;;;;;;;9.49;65.72;100159.06;4985313;28;20026;-72
2023/04/11 01:38:52;;;;;;;9.35;6.32;;;;;;;9.49;65.88;100148.53;4994052;28;20043;-72
2023/04/11 01:41:18;;;;;;;8.82;6.40;;;;;;;9.45;66.26;100133.63;4985173;28;20034;-72
2023/04/11 01:43:44;;;;;;;9.80;6.35;;;;;;;9.41;66.34;100106.44;4994224;28;20074;-72
2023/04/11 01:46:10;;;;;;;7.53;5.35;;;;;;;9.48;66.39;100112.50;4994316;28;20058;-72
2023/04/11 01:48:36;;;;;;;9.98;6.18;;;;;;;9.55;66.37;100108.94;4996394;28;20042;-73
2023/04/11 01:51:03;;;;;;;8.60;5.93;;;;;;;9.58;65.78;100094.88;5008977;28;20404;-71
2023/04/11 01:53:29;;;;;;;8.15;5.32;;;;;;;9.55;66.22;100093.16;4984966;28;20057;-72
2023/04/11 01:55:54;;;;;;;8.85;6.00;;;;;;;9.59;66.40;100094.88;4994097;28;20153;-73
2023/04/11 01:58:19;;;;;;;9.55;5.43;;;;;;;9.60;65.97;100086.06;4984782;28;20038;-73
2023/04/11 02:00:45;;;;;;;9.30;6.13;;;;;;;9.59;66.46;100078.19;4986550;28;20117;-72
2023/04/11 02:03:10;;;;;;;8.25;5.75;;;;;;;9.59;65.95;100076.44;4984866;28;20061;-73
2023/04/11 02:05:36;;;;;;;8.88;6.07;;;;;;;9.52;66.33;100066.84;4984572;28;20496;-73
2023/04/11 02:08:02;;;;;;;8.43;5.88;;;;;;;9.53;66.56;100057.16;5008815;28;20081;-72
2023/04/11 02:10:27;;;;;;;7.63;5.80;;;;;;;9.54;66.44;100061.56;4992270;28;20033;-72
2023/04/11 02:12:52;;;;;;;7.85;5.38;;;;;;;9.63;66.46;100054.41;4993639;28;20046;-72
2023/04/11 02:15:18;;;;;;;8.00;5.28;;;;;;;9.58;66.19;100050.97;4984181;28;20042;-72
2023/04/11 02:17:44;;;;;;;8.35;5.28;;;;;;;9.71;65.27;100045.56;4993881;28;20037;-73
2023/04/11 02:20:12;;;;;;;7.78;5.07;;;;;;;9.85;65.11;100039.28;5004486;28;20046;-72
2023/04/11 02:22:37;;;;;;;7.47;5.22;;;;;;;9.92;64.12;100029.53;5000654;28;20500;-72
2023/04/11 02:25:03;;;;;;;7.72;4.85;;;;;;;10.02;63.99;100035.56;5008653;28;20112;-73
2023/04/11 02:27:30;;;;;;;7.63;4.88;;;;;;;10.11;63.16;100022.25;4993350;28;20054;-73
2023/04/11 02:29:55;;;;;;;6.68;4.75;;;;;;;10.18;62.09;100020.44;4992601;28;20492;-72
2023/04/11 02:32:20;;;;;;;6.15;4.30;;;;;;;10.29;62.55;100013.28;4992804;28;20052;-73
2023/04/11 02:34:46;;;;;;;6.93;4.60;;;;;;;10.39;62.02;100014.03;4985323;28;20117;-72
2023/04/11 02:37:11;;;;;;;8.23;4.63;;;;;;;10.44;61.43;100015.72;4993399;28;20137;-73
2023/04/11 02:39:36;;;;;;;7.22;4.60;;;;;;;10.45;61.22;100009.56;4983183;28;20053;-72
2023/04/11 02:42:02;;;;;;;8.10;4.43;;;;;;;10.49;61.52;100003.31;4991758;28;20038;-73
2023/04/11 02:44:28;;;;;;;7.57;4.95;;;;;;;10.52;61.22;100008.56;4993193;28;20416;-73
2023/04/11 02:46:54;;;;;;;7.40;5.18;;;;;;;10.55;61.11;99993.59;4992192;28;20088;-73
2023/04/11 02:49:20;;;;;;;6.47;4.45;;;;;;;10.59;60.54;99995.28;4991451;28;20042;-72
2023/04/11 02:51:46;;;;;;;8.77;5.57;;;;;;;10.60;60.76;100003.16;4986857;28;20042;-72
2023/04/11 02:54:12;;;;;;;7.30;4.80;;;;;;;10.61;60.52;99998.75;4983956;28;20525;-73
2023/04/11 02:56:37;;;;;;;7.72;5.03;;;;;;;10.62;61.14;99996.09;4992667;28;20045;-73
2023/04/11 02:59:05;;;;;;;8.05;5.25;;;;;;;10.56;61.16;99992.69;4992499;28;20038;-73
2023/04/11 03:01:30;;;;;;;7.18;4.80;;;;;;;10.52;61.25;99990.09;4992817;28;20042;-72
2023/04/11 03:03:55;;;;;;;7.43;4.70;;;;;;;10.55;60.66;100002.38;4992453;28;20069;-72
2023/04/11 03:06:25;;;;;;;7.90;4.55;;;;;;;10.59;60.58;99984.75;4983430;28;20030;-73
2023/04/11 03:08:56;;;;;;;7.45;5.40;;;;;;;10.58;60.76;99988.25;4992983;28;20404;-73
2023/04/11 03:11:21;;;;;;;7.07;4.68;;;;;;;10.58;60.69;99989.13;4991976;28;20037;-73
2023/04/11 03:13:47;;;;;;;7.38;4.43;;;;;;;10.59;60.80;99984.75;4982922;28;20382;-73
2023/04/11 03:16:12;;;;;;;6.78;4.63;;;;;;;10.62;60.76;99984.69;4992514;28;20038;-73
2023/04/11 03:18:38;;;;;;;7.18;4.40;;;;;;;10.70;60.30;99972.25;5007451;28;20030;-73
2023/04/11 03:21:09;;;;;;;6.20;4.05;;;;;;;10.71;59.65;99971.34;4991102;28;20130;-73
2023/04/11 03:23:37;;;;;;;6.13;4.32;;;;;;;10.74;60.30;99971.28;4990735;28;20100;-72
2023/04/11 03:26:04;;;;;;;8.48;5.68;;;;;;;10.73;59.95;99975.69;4991713;28;20563;-73
2023/04/11 03:28:30;;;;;;;6.38;4.47;;;;;;;10.77;60.06;99971.25;4982469;28;20519;-73
2023/04/11 03:30:56;;;;;;;6.20;4.10;;;;;;;10.78;60.30;99969.50;4991955;28;20041;-73
2023/04/11 03:33:23;;;;;;;6.60;4.28;;;;;;;10.74;60.13;99973.91;4982647;28;20041;-73
2023/04/11 03:35:48;;;;;;;6.35;4.35;;;;;;;10.73;60.39;99966.91;4991016;28;20038;-73
2023/04/11 03:38:14;;;;;;;5.53;3.80;;;;;;;10.77;60.50;99960.69;4982234;28;20027;-73
2023/04/11 03:40:39;;;;;;;8.02;4.88;;;;;;;10.80;60.40;99960.66;5007030;28;20492;-73
2023/04/11 03:43:12;;;;;;;;;;;;;;;10.82;59.92;99960.59;5003590;28;20038;-73
2023/04/11 03:45:38;;;;;;;6.00;4.00;;;;;;;10.79;60.37;99953.59;5007202;28;19914;-72
2023/04/11 03:48:09;;;;;;;7.13;4.45;;;;;;;10.82;59.62;99950.03;4981698;28;20389;-72
2023/04/11 03:50:49;;;;;;;6.18;3.97;;;;;;;10.83;59.48;99951.81;4973661;28;20042;-73
2023/04/11 03:53:18;;;;;;;7.13;4.40;;;;;;;10.93;59.75;99943.72;4989528;28;20034;-72
2023/04/11 03:55:45;;;;;;;6.18;4.25;;;;;;;10.99;59.50;99949.78;4989439;28;20416;-73
2023/04/11 03:58:14;;;;;;;6.72;3.92;;;;;;;10.97;59.11;99944.50;5006782;28;20057;-72
2023/04/11 04:00:41;;;;;;;7.28;4.07;;;;;;;11.02;59.37;99939.16;4981871;28;20034;-73
2023/04/11 04:03:07;;;;;;;6.32;4.22;;;;;;;11.11;58.68;99939.00;4982563;28;20038;-72
2023/04/11 04:05:34;;;;;;;6.68;4.15;;;;;;;11.14;58.80;99941.59;5006929;28;20031;-73
2023/04/11 04:08:00;;;;;;;7.57;4.78;;;;;;;11.20;58.77;99952.03;5006813;28;20496;-72
2023/04/11 04:10:39;;;;;;;6.85;4.32;;;;;;;11.24;57.95;99943.19;4982200;28;20038;-73
2023/04/11 04:13:04;;;;;;;6.10;3.92;;;;;;;11.23;58.70;99951.97;4988598;28;20038;-73
2023/04/11 04:15:37;;;;;;;5.90;3.70;;;;;;;11.27;58.66;99945.75;4987938;28;20034;-73
2023/04/11 04:18:03;;;;;;;6.28;4.30;;;;;;;11.31;58.42;99949.19;4991520;28;20043;-73
2023/04/11 04:20:41;;;;;;;6.50;4.20;;;;;;;11.34;59.48;99942.09;4977954;28;20034;-74
2023/04/11 04:23:07;;;;;;;6.05;4.05;;;;;;;11.33;59.94;99952.69;4979699;28;20037;-73
2023/04/11 04:25:56;;;;;;;6.15;4.10;;;;;;;11.32;60.77;99940.41;4982080;28;20415;-72
2023/04/11 04:28:24;;;;;;;6.90;4.78;;;;;;;11.24;62.45;99940.53;5006683;28;20041;-72
2023/04/11 04:30:52;;;;;;;5.88;3.90;;;;;;;11.15;62.40;99940.69;4989825;28;20042;-72
2023/04/11 04:33:20;;;;;;;7.40;4.00;;;;;;;11.06;63.68;99943.50;4992850;28;20121;-72
2023/04/11 04:35:50;;;;;;;6.38;4.38;;;;;;;10.99;65.52;99944.50;4990444;28;20070;-72
2023/04/11 04:38:16;;;;;;;6.78;4.53;;;;;;;10.82;69.50;99937.75;4986703;28;20066;-73
2023/04/11 04:40:53;;;;;;;6.65;4.30;;;;;;;10.72;71.88;99941.44;4981580;28;20034;-72
2023/04/11 04:43:22;;;;;;;8.02;4.40;;;;;;;10.57;81.21;99933.75;4993903;28;20390;-73
2023/04/11 04:45:54;;;;;;;6.85;4.57;;;;;;;10.34;83.96;99920.91;4976640;28;20096;-73
2023/04/11 04:48:24;;;;;;;8.40;4.07;;;;;;;10.23;88.41;99913.97;4976904;28;20117;-73
2023/04/11 04:50:51;;;;;;;6.93;4.38;;;;;;;10.20;88.10;99907.91;4989754;28;20118;-73
2023/04/11 04:53:17;;;;;;;8.27;4.45;;;;;;;10.18;91.23;99909.69;4982858;28;20504;-73
2023/04/11 04:55:48;;;;;;;8.85;4.85;;;;;;;10.08;96.66;99909.78;4983593;28;20034;-73
2023/04/11 04:58:15;;;;;;;8.38;5.10;;;;;;;10.05;97.94;99909.84;4991958;28;20041;-73
2023/04/11 05:00:41;;;;;;;10.27;6.30;;;;;;;10.11;94.34;99898.34;4994386;28;20035;-72
2023/04/11 05:03:16;;;;;;;9.95;7.18;;;;;;;10.18;94.68;99893.84;4994913;28;20038;-73
2023/04/11 05:05:41;;;;;;;7.80;4.82;;;;;;;10.25;94.04;99895.50;4993575;28;20507;-73
2023/04/11 05:08:07;;;;;;;6.50;4.63;;;;;;;10.25;94.50;99890.25;5009717;28;20030;-73
2023/04/11 05:10:34;;;;;;;6.80;4.90;;;;;;;10.21;94.17;99893.81;4990846;28;20491;-72
2023/04/11 05:13:00;;;;;;;8.73;5.35;;;;;;;10.15;93.65;99892.13;4985012;28;20033;-73
2023/04/11 05:15:25;;;;;;;7.97;5.60;;;;;;;10.10;96.21;99886.06;5009428;28;20026;-73
2023/04/11 05:17:50;;;;;;;8.05;5.25;;;;;;;10.13;93.82;99883.38;4986433;28;20496;-73
2023/04/11 05:20:16;;;;;;;8.30;5.90;;;;;;;10.12;94.88;99884.28;4985376;28;20034;-73
2023/04/11 05:22:46;;;;;;;7.13;4.95;;;;;;;10.16;93.43;99888.59;5009663;28;20036;-73
2023/04/11 05:25:12;;;;;;;7.78;5.82;;;;;;;10.18;93.14;99883.31;4993402;28;20037;-72
2023/04/11 05:27:39;;;;;;;8.82;6.25;;;;;;;10.10;93.85;99881.66;4985480;28;20081;-73
2023/04/11 05:30:06;;;;;;;7.20;5.28;;;;;;;10.04;93.15;99875.59;5009067;28;20511;-73
2023/04/11 05:32:35;;;;;;;7.25;5.32;;;;;;;10.12;92.85;99880.78;5009517;28;20041;-73
2023/04/11 05:35:00;;;;;;;10.40;6.18;;;;;;;10.15;92.36;99883.34;5002277;23;20054;-76
2023/04/11 05:37:35;;;;;;;7.22;5.30;;;;;;;10.15;91.39;99893.91;5004396;28;20096;-76
2023/04/11 05:40:01;;;;;;;8.30;5.82;;;;;;;10.16;90.46;99893.00;5000521;28;20687;-76
2023/04/11 05:42:26;;;;;;;8.93;5.43;;;;;;;10.22;89.06;99896.44;4988494;28;20037;-76
2023/04/11 05:44:52;;;;;;;10.88;6.22;;;;;;;10.19;87.92;99887.66;4979183;28;20385;-76
2023/04/11 05:47:17;;;;;;;8.85;5.85;;;;;;;10.16;88.95;99885.94;4973863;28;20085;-76
2023/04/11 05:49:42;;;;;;;7.97;6.07;;;;;;;10.13;89.94;99890.41;4984317;28;20031;-76
2023/04/11 05:52:08;;;;;;;9.20;5.82;;;;;;;10.11;90.41;99877.25;4984458;28;20100;-76
2023/04/11 05:54:35;;;;;;;9.30;6.53;;;;;;;10.10;92.00;99881.66;4975210;28;20451;-77
2023/04/11 05:57:01;;;;;;;8.50;5.85;;;;;;;10.07;92.98;99876.41;4988850;28;20081;-76
2023/04/11 05:59:29;;;;;;;9.13;6.00;;;;;;;10.08;91.33;99880.78;4986683;28;20044;-76
2023/04/11 06:01:55;;;;;;;7.78;5.57;;;;;;;10.16;90.93;99888.59;4987075;28;20046;-76
2023/04/11 06:04:20;;;;;;;7.93;5.45;;;;;;;10.23;89.67;99892.88;4987386;28;20093;-76
2023/04/11 06:06:46;;;;;;;8.90;4.80;;;;;;;10.24;91.13;99901.66;4985192;28;20050;-76
2023/04/11 06:09:12;;;;;;;8.65;5.63;;;;;;;10.29;91.06;99891.94;4985558;28;20035;-76
2023/04/11 06:11:37;;;;;;;8.27;5.75;;;;;;;10.25;91.31;99896.38;4984049;28;20451;-76
2023/04/11 06:14:03;;;;;;;8.27;5.10;;;;;;;10.22;92.98;99898.19;4986593;28;20030;-76
2023/04/11 06:16:30;;;;;;;9.45;5.75;;;;;;;10.15;94.58;99896.53;4985787;28;20046;-76
2023/04/11 06:18:55;;;;;;;12.73;8.43;;;;;;;10.12;98.21;99894.81;4984053;28;20393;-76
2023/04/11 06:21:21;;;;;;;8.43;5.60;;;;;;;10.04;100.00;99905.47;4983302;28;20050;-76
2023/04/11 06:23:46;;;;;;;9.77;6.03;;;;;;;9.98;100.00;99899.41;4987080;28;20061;-76
2023/04/11 06:26:11;;;;;;;10.95;5.75;;;;;;;9.94;100.00;99905.63;4984425;28;20043;-76
2023/04/11 06:28:37;;;;;;;10.80;5.80;;;;;;;9.86;100.00;99903.09;4992559;28;20039;-76
2023/04/11 06:31:02;;;;;;;10.73;5.72;;;;;;;9.78;100.00;99905.81;4986657;28;20054;-76
2023/04/11 06:33:27;;;;;;;8.80;5.80;;;;;;;9.70;100.00;99907.69;4982829;28;20038;-76
2023/04/11 06:35:53;;;;;;;8.93;4.90;;;;;;;9.66;100.00;99909.47;4983956;28;20042;-76
2023/04/11 06:38:18;;;;;;;7.63;4.95;;;;;;;9.63;100.00;99919.19;4987067;28;20117;-75
2023/04/11 06:40:44;;;;;;;7.15;4.78;;;;;;;9.54;100.00;99921.94;4990696;28;20034;-76
2023/04/11 06:43:09;;;;;;;8.43;5.45;;;;;;;9.46;100.00;99926.41;4990037;28;20381;-77
2023/04/11 06:45:34;;;;;;;7.65;5.13;;;;;;;9.41;100.00;99924.72;4987696;28;20074;-76
2023/04/11 06:48:00;;;;;;;8.48;5.32;;;;;;;9.37;100.00;99930.00;4983560;28;20042;-77
2023/04/11 06:50:25;;;;;;;7.22;4.85;;;;;;;9.35;100.00;99926.53;4985227;28;20049;-77
2023/04/11 06:52:50;;;;;;;9.95;5.25;;;;;;;9.31;100.00;99930.09;4988021;28;20042;-76
2023/04/11 06:55:16;;;;;;;8.85;4.78;;;;;;;9.32;100.00;99935.31;4982408;28;20046;-77
2023/04/11 06:57:42;;;;;;;9.85;6.30;;;;;;;9.35;100.00;99934.41;4973648;28;20031;-77
2023/04/11 07:00:08;;;;;;;9.35;5.25;;;;;;;9.34;100.00;99927.41;4989507;28;20381;-77
2023/04/11 07:02:34;;;;;;;9.55;5.20;;;;;;;9.29;100.00;99926.59;4985333;28;20037;-77
2023/04/11 07:05:00;;;;;;;10.02;5.85;;;;;;;9.43;100.00;99927.31;4981112;28;20488;-77
2023/04/11 07:07:26;;;;;;;9.43;6.50;;;;;;;9.52;100.00;99931.63;4984878;28;20033;-77
2023/04/11 07:09:51;;;;;;;9.10;5.15;;;;;;;9.57;100.00;99927.16;4972207;28;20043;-76
2023/04/11 07:12:17;;;;;;;9.30;5.28;;;;;;;9.54;100.00;99922.81;4989839;28;20062;-77
2023/04/11 07:14:42;;;;;;;7.55;5.05;;;;;;;9.57;100.00;99914.00;4984120;28;20706;-77
2023/04/11 07:17:08;;;;;;;8.57;5.40;;;;;;;9.60;100.00;99924.50;4983522;28;20046;-77
2023/04/11 07:19:33;;;;;;;7.93;4.43;;;;;;;9.60;100.00;99928.00;4980382;28;20026;-77
2023/04/11 07:21:59;;;;;;;7.32;4.57;;;;;;;9.59;100.00;99931.53;4985404;28;20038;-77
2023/04/11 07:24:24;;;;;;;9.43;5.45;;;;;;;9.62;100.00;99936.75;4990248;28;20045;-77
2023/04/11 07:26:52;;;;;;;9.38;6.00;;;;;;;9.64;100.00;99939.34;4992311;28;20030;-77
2023/04/11 07:29:17;;;;;;;7.57;5.43;;;;;;;9.56;100.00;99941.22;4984837;28;20050;-77
2023/04/11 07:31:43;;;;;;;11.70;5.40;;;;;;;9.56;100.00;99952.66;4984406;28;20062;-77
2023/04/11 07:34:09;;;;;;;7.38;4.72;;;;;;;9.60;100.00;99953.47;4981926;28;20536;-77
2023/04/11 07:36:35;;;;;;;8.63;5.43;;;;;;;9.63;100.00;99937.63;4987456;28;20071;-77
2023/04/11 07:39:00;;;;;;;8.80;5.75;;;;;;;9.68;100.00;99942.84;4988325;28;20043;-77
2023/04/11 07:41:26;;;;;;;9.60;6.35;;;;;;;9.62;100.00;99942.03;4986509;28;20090;-77
2023/04/11 07:43:51;;;;;;;8.90;5.88;;;;;;;9.70;100.00;99943.72;4991442;28;20034;-77
2023/04/11 07:46:16;;;;;;;9.02;5.70;;;;;;;9.66;100.00;99946.34;4986228;28;20042;-77
2023/04/11 07:48:42;;;;;;;9.73;5.85;;;;;;;9.65;100.00;99938.50;4986758;28;20031;-76
2023/04/11 07:51:07;;;;;;;7.95;5.47;;;;;;;9.68;100.00;99956.88;4985036;28;20038;-77
2023/04/11 07:53:32;;;;;;;8.65;5.07;;;;;;;9.69;100.00;99947.22;4990021;28;20050;-77
2023/04/11 07:55:58;;;;;;;8.63;5.43;;;;;;;9.80;100.00;99942.72;4986137;28;20081;-76
2023/04/11 07:58:23;;;;;;;8.98;5.90;;;;;;;9.92;100.00;99952.22;4985949;28;20086;-76
2023/04/11 08:00:49;;;;;;;10.43;6.13;;;;;;;10.14;100.00;99950.16;4980462;28;20504;-77
2023/04/11 08:03:15;;;;;;;9.20;6.07;;;;;;;10.30;100.00;99949.09;4987177;28;20509;-77
2023/04/11 08:05:41;;;;;;;9.48;6.20;;;;;;;10.38;100.00;99944.59;4985446;28;20045;-77
2023/04/11 08:08:06;;;;;;;8.52;5.60;;;;;;;10.50;100.00;99943.50;4975472;28;20396;-76
2023/04/11 08:10:32;;;;;;;9.10;6.05;;;;;;;10.53;100.00;99948.72;4983025;28;20042;-77
2023/04/11 08:12:58;;;;;;;7.75;5.13;;;;;;;10.53;100.00;99952.28;4986448;28;20073;-77
2023/04/11 08:15:24;;;;;;;8.63;5.47;;;;;;;10.50;100.00;99944.38;4990119;28;20088;-77
2023/04/11 08:17:50;;;;;;;8.13;5.32;;;;;;;10.50;100.00;99944.38;4987716;28;20093;-77
2023/04/11 08:20:18;;;;;;;7.63;5.43;;;;;;;10.60;100.00;99938.97;4993372;28;20034;-77
2023/04/11 08:22:45;;;;;;;10.70;5.55;;;;;;;10.61;100.00;99945.97;4992975;28;20125;-77
2023/04/11 08:25:11;;;;;;;9.18;4.60;;;;;;;10.69;100.00;99941.47;4976712;28;20050;-76
2023/04/11 08:27:40;;;;;;;7.90;4.95;;;;;;;10.75;100.00;99941.38;4986610;28;20038;-77
2023/04/11 08:30:07;;;;;;;8.60;5.18;;;;;;;10.75;100.00;99938.72;4985577;28;20049;-77
2023/04/11 08:32:34;;;;;;;7.72;4.70;;;;;;;10.73;100.00;99935.25;4991082;28;20026;-77
2023/04/11 08:34:59;;;;;;;8.90;4.57;;;;;;;10.68;100.00;99945.88;4985910;28;20038;-77
2023/04/11 08:37:25;;;;;;;7.65;4.75;;;;;;;10.55;100.00;99952.22;4986601;28;20045;-77
2023/04/11 08:39:50;;;;;;;7.93;4.57;;;;;;;10.41;100.00;99949.81;4977226;28;20035;-77
2023/04/11 08:42:23;;;;;;;8.80;4.90;;;;;;;10.42;100.00;99962.09;4988340;28;20117;-77
2023/04/11 08:45:07;;;;;;;7.78;5.35;;;;;;;10.44;100.00;99957.66;4985686;28;20166;-76
2023/04/11 08:47:33;;;;;;;7.80;4.40;;;;;;;10.42;100.00;99956.81;4984441;28;20042;-77
2023/04/11 08:49:58;;;;;;;6.70;4.40;;;;;;;10.45;100.00;99971.72;4988594;28;20038;-77
2023/04/11 08:52:24;;;;;;;8.70;4.20;;;;;;;10.39;100.00;99969.19;4993571;28;20603;-77
2023/04/11 08:54:53;;;;;;;8.82;4.38;;;;;;;10.37;100.00;99966.56;4990692;28;20043;-77
2023/04/11 08:57:27;;;;;;;7.88;4.30;;;;;;;10.47;100.00;99960.25;4988480;28;20042;-77
2023/04/11 08:59:55;;;;;;;11.15;5.18;;;;;;;10.66;100.00;99952.06;4987059;28;20034;-77
2023/04/11 09:02:21;;;;;;;6.85;4.40;;;;;;;10.84;100.00;99948.25;4988279;28;20192;-77
2023/04/11 09:04:46;;;;;;;7.15;4.70;;;;;;;10.96;100.00;99954.22;4984993;28;20059;-77
2023/04/11 09:07:18;;;;;;;6.63;4.07;;;;;;;11.13;100.00;99956.56;4988131;28;20515;-77
2023/04/11 09:09:44;;;;;;;7.80;4.40;;;;;;;11.37;100.00;99960.53;4985759;28;20034;-78
2023/04/11 09:12:10;;;;;;;7.57;3.70;;;;;;;11.63;100.00;99959.16;4988834;28;20026;-77
2023/04/11 09:14:36;;;;;;;6.15;3.55;;;;;;;11.67;100.00;99955.56;4986635;28;20038;-77
2023/04/11 09:17:12;;;;;;;6.82;3.70;;;;;;;11.91;100.00;99956.84;4986687;28;20086;-77
2023/04/11 09:19:39;;;;;;;4.63;3.10;;;;;;;11.98;100.00;99955.84;4983839;28;20039;-77
2023/04/11 09:22:05;;;;;;;6.68;3.78;;;;;;;12.19;100.00;99967.72;4978018;28;20080;-77
2023/04/11 09:24:31;;;;;;;5.07;3.10;;;;;;;12.43;100.00;99946.91;4990922;28;20042;-77
2023/04/11 09:27:15;;;;;;;5.97;3.08;;;;;;;12.51;100.00;99947.59;4985349;28;20031;-76
2023/04/11 09:29:47;;;;;;;5.88;2.90;;;;;;;12.70;100.00;99948.91;4985514;28;20066;-77
2023/04/11 09:32:33;;;;;;;7.53;2.92;;;;;;;12.76;100.00;99947.91;4989428;28;20034;-77
2023/04/11 09:35:11;;;;;;;4.88;3.05;;;;;;;13.02;100.00;99934.00;4988929;28;20034;-77
2023/04/11 09:37:50;;;;;;;6.28;3.05;;;;;;;12.99;97.93;99952.59;4987056;28;20047;-77
2023/04/11 09:40:20;;;;;;;6.05;2.40;;;;;;;13.00;97.67;99938.47;4985721;28;20554;-77
2023/04/11 09:42:47;;;;;;;6.45;2.88;;;;;;;13.08;99.14;99933.84;4985735;28;20438;-77
2023/04/11 09:45:20;;;;;;;5.82;2.20;;;;;;;13.08;92.75;99943.56;4992974;28;20042;-77
2023/04/11 09:47:47;;;;;;;6.30;2.50;;;;;;;12.94;89.16;99934.22;4991580;28;20042;-77
2023/04/11 09:50:13;;;;;;;4.25;1.95;;;;;;;12.96;89.12;99928.84;4985643;28;20070;-76
2023/04/11 09:52:43;;;;;;;6.53;2.38;;;;;;;12.85;90.64;99925.63;4989064;28;20049;-76
2023/04/11 09:55:13;;;;;;;5.15;2.13;;;;;;;12.97;91.95;99922.66;4984677;28;20092;-76
2023/04/11 09:57:44;;;;;;;5.55;2.40;;;;;;;12.87;88.67;99932.63;4986145;28;20070;-77
2023/04/11 10:00:15;;;;;;;5.30;2.07;;;;;;;13.08;89.89;99922.38;4983509;28;20038;-76
2023/04/11 10:02:42;;;;;;;8.05;2.15;;;;;;;13.16;88.80;99915.97;4985715;28;20377;-76
2023/04/11 10:05:09;;;;;;;6.20;2.30;;;;;;;13.34;90.86;99908.47;4989876;28;20039;-76
2023/04/11 10:07:44;;;;;;;6.18;2.05;;;;;;;13.44;89.85;99909.97;4983739;28;20118;-75
2023/04/11 10:10:15;;;;;;;5.47;1.95;;;;;;;13.41;87.62;99914.47;4986939;28;20035;-76
2023/04/11 10:12:41;;;;;;;5.93;1.90;;;;;;;13.42;83.72;99913.56;4986082;28;20046;-77
2023/04/11 10:15:07;;;;;;;6.50;2.08;;;;;;;13.62;83.01;99913.84;4985030;28;20034;-77
2023/04/11 10:17:33;;;;;;;3.83;1.65;;;;;;;13.99;82.00;99907.47;4985963;28;20109;-77
2023/04/11 10:19:58;;;;;;;6.28;1.80;;;;;;;14.22;79.51;99893.50;4982521;28;20138;-76
2023/04/11 10:22:39;;;;;;;6.45;1.80;;;;;;;14.52;75.34;99890.81;4987670;28;20492;-77
2023/04/11 10:25:18;;;;;;;6.80;1.42;;;;;;;14.25;69.89;99898.72;4984153;28;20044;-77
2023/04/11 10:27:47;;;;;;;3.30;1.30;;;;;;;14.11;71.99;99890.31;4986154;28;20041;-77
2023/04/11 10:30:13;;;;;;;5.38;1.67;;;;;;;13.66;75.85;99893.44;4982202;28;20404;-76
2023/04/11 10:32:40;;;;;;;5.85;1.50;;;;;;;13.13;82.56;99905.44;4988453;28;20034;-77
2023/04/11 10:35:19;;;;;;;8.02;2.00;;;;;;;12.22;92.58;99917.41;4985861;28;20133;-73
2023/04/11 10:37:46;;;;;;;6.05;1.77;;;;;;;10.95;100.00;99941.03;4991461;28;20046;-73
2023/04/11 10:40:12;;;;;;;6.03;1.65;;;;;;;10.36;100.00;99953.41;4982266;28;20405;-73
2023/04/11 10:42:40;;;;;;;5.03;1.55;;;;;;;9.93;100.00;99965.38;4988202;28;20038;-75
2023/04/11 10:45:16;;;;;;;4.60;1.88;;;;;;;9.80;100.00;99969.06;4986874;28;20030;-74
2023/04/11 10:47:42;;;;;;;5.82;1.90;;;;;;;9.82;100.00;99972.53;4993726;28;20041;-74
2023/04/11 10:50:26;;;;;;;3.75;1.70;;;;;;;10.17;100.00;99958.03;4978105;28;20033;-74
2023/04/11 10:52:52;;;;;;;5.22;1.92;;;;;;;10.53;93.65;99954.00;4991442;28;20527;-74
2023/04/11 10:55:18;;;;;;;5.90;1.52;;;;;;;10.86;89.75;99957.03;4986201;28;20512;-75
2023/04/11 10:58:02;;;;;;;4.88;2.22;;;;;;;11.08;82.55;99957.53;4987833;28;20034;-75
2023/04/11 11:00:28;;;;;;;5.28;1.90;;;;;;;11.44;88.22;99956.00;4982986;28;20118;-75
2023/04/11 11:02:54;;;;;;;7.63;1.92;;;;;;;11.84;80.61;100002.78;4987331;28;20113;-75
2023/04/11 11:05:23;;;;;;;6.53;1.45;;;;;;;11.26;83.89;99999.47;4984055;28;20046;-75
2023/04/11 11:07:50;;;;;;;3.28;0.80;;;;;;;10.46;84.18;100061.41;4987415;28;20439;-75
2023/04/11 11:10:33;;;;;;;1.30;0.43;;;;;;;9.87;83.91;100068.22;4980974;28;20063;-75
2023/04/11 11:13:05;;;;;;;2.38;0.30;;;;;;;8.81;91.86;100055.13;5079072;28;20386;-77
2023/04/11 11:15:36;;;;;;;2.13;0.65;;;;;;;7.77;100.00;100090.56;5059533;28;20089;-75
2023/04/11 11:18:09;;;;;;;3.35;0.82;;;;;;;6.97;100.00;100080.97;5056549;28;20045;-75
2023/04/11 11:20:38;;;;;;;1.75;0.57;;;;;;;6.78;100.00;100052.94;5057787;28;20037;-76
2023/04/11 11:23:05;;;;;;;1.55;0.50;;;;;;;6.75;100.00;100050.31;5064830;28;20109;-74
2023/04/11 11:25:31;;;;;;;2.10;0.63;;;;;;;6.82;100.00;100049.47;5058663;28;20483;-73
2023/04/11 11:28:07;;;;;;;1.60;0.57;;;;;;;7.08;100.00;100074.88;5065508;28;20047;-73
2023/04/11 11:30:36;;;;;;;2.38;0.77;;;;;;;7.41;100.00;100066.09;5062860;28;20514;-74
2023/04/11 11:33:18;;;;;;;1.05;0.43;;;;;;;7.65;100.00;100075.69;5065827;28;20021;-74